WetterOnline ( https://www.wetteronline.de )

Wetter aktuell Denkendorf

Aktuelles Wetter: Gelbelsee (539m)

6-stündlich | Neueste Meldungen
Ortszeit Temperatur Wetter
Di, 02.06. 20:00 23.4° C wolkenlos
Di, 02.06. 14:00 21.5° C wolkenlos
Di, 02.06. 8:00 15.9° C wolkenlos
Di, 02.06. 2:00 13.6° C wolkenlos
Mo, 01.06. 20:00 21.4° C wolkenlos
Mo, 01.06. 14:00 21.4° C wolkenlos
Mo, 01.06. 8:00 13.1° C wolkenlos
Mo, 01.06. 2:00 10.7° C bedeckt
Ortszeit Temperatur Wetter
Di, 02.06. 20:10 23.1° C wolkenlos
Di, 02.06. 20:00 23.4° C wolkenlos
Di, 02.06. 19:50 23.4° C wolkenlos
Di, 02.06. 19:40 23.0° C wolkenlos
Di, 02.06. 19:30 21.2° C leicht bewölkt
Di, 02.06. 19:20 21.2° C leicht bewölkt
Di, 02.06. 19:00 22.8° C leicht bewölkt
Di, 02.06. 18:30 22.1° C bewölkt
Di, 02.06. 18:00 21.8° C leicht bewölkt
Di, 02.06. 17:30 23.3° C fast wolkenlos
Di, 02.06. 17:00 21.9° C leicht bewölkt
Ortszeit Relative Feuchte Sichtweite
Di, 02.06. 20:00 27% 45 km
Di, 02.06. 14:00 30% 55 km
Di, 02.06. 8:00 54% 65 km
Di, 02.06. 2:00 58% 55 km
Mo, 01.06. 20:00 32% >70 km
Mo, 01.06. 14:00 34% >70 km
Mo, 01.06. 8:00 67% 55 km
Mo, 01.06. 2:00 75% >70 km
Ortszeit Relative Feuchte Sichtweite
Di, 02.06. 20:10 24% -
Di, 02.06. 20:00 27% 45 km
Di, 02.06. 19:50 27% -
Di, 02.06. 19:40 29% -
Di, 02.06. 19:30 37% >70 km
Di, 02.06. 19:20 37% -
Di, 02.06. 19:00 29% 60 km
Di, 02.06. 18:30 30% 50 km
Di, 02.06. 18:00 31% >70 km
Di, 02.06. 17:30 27% >70 km
Di, 02.06. 17:00 32% 60 km
Ortszeit Niederschlagsmenge Niederschlagsart
Di, 02.06. 20:00 0.0 l/m2 in 12 Std. -
Di, 02.06. 14:00 0.0 l/m2 in 6 Std. -
Di, 02.06. 8:00 0.0 l/m2 in 12 Std. -
Di, 02.06. 2:00 0.0 l/m2 in 6 Std. -
Mo, 01.06. 20:00 0.0 l/m2 in 12 Std. -
Mo, 01.06. 14:00 0.0 l/m2 in 6 Std. -
Mo, 01.06. 8:00 0.1 l/m2 in 12 Std. -
Mo, 01.06. 2:00 0.1 l/m2 in 6 Std. Regen
Ortszeit Niederschlagsmenge Niederschlagsart
Di, 02.06. 20:10 keine Meldung -
Di, 02.06. 20:00 0.0 l/m2 in 1 Std. -
Di, 02.06. 19:50 keine Meldung -
Di, 02.06. 19:40 keine Meldung -
Di, 02.06. 19:30 0.0 l/m2 in 1 Std. -
Di, 02.06. 19:20 keine Meldung -
Di, 02.06. 19:00 0.0 l/m2 in 1 Std. -
Di, 02.06. 18:30 0.0 l/m2 in 1 Std. -
Di, 02.06. 18:00 0.0 l/m2 in 1 Std. -
Di, 02.06. 17:30 0.0 l/m2 in 1 Std. -
Di, 02.06. 17:00 0.0 l/m2 in 1 Std. -
Ortszeit Stärke Spitze Richtung
km/h Bft. km/h Grad Sektor
Di, 02.06. 20:00 0 0 22 - -
Di, 02.06. 14:00 13 3 28 60° NO
Di, 02.06. 8:00 7 2 13 60° NO
Di, 02.06. 2:00 11 2 18 70° O
Mo, 01.06. 20:00 11 2 32 90° O
Mo, 01.06. 14:00 13 3 33 80° O
Mo, 01.06. 8:00 7 2 11 20° N
Mo, 01.06. 2:00 4 1 22 210° SW
Ortszeit Stärke Spitze Richtung
km/h Bft. km/h Grad Sektor
Di, 02.06. 20:10 0 0 - - -
Di, 02.06. 20:00 0 0 11 - -
Di, 02.06. 19:50 2 1 - 310° NW
Di, 02.06. 19:40 4 1 - 350° N
Di, 02.06. 19:30 6 1 11 340° N
Di, 02.06. 19:20 6 1 - 340° N
Di, 02.06. 19:00 4 1 11 50° NO
Di, 02.06. 18:30 4 1 11 30° NO
Di, 02.06. 18:00 7 2 17 30° NO
Di, 02.06. 17:30 4 1 11 220° SW
Di, 02.06. 17:00 9 2 15 50° NO
Ortszeit Untergrenze Bedeckung Gattung
total tief tief mittel hoch
Di, 02.06. 20:00 - 0/8 0/8 - - -
Di, 02.06. 14:00 - 0/8 0/8 - - -
Di, 02.06. 8:00 - 0/8 0/8 - - -
Di, 02.06. 2:00 - 0/8 0/8 - - -
Mo, 01.06. 20:00 - 0/8 0/8 - - -
Mo, 01.06. 14:00 - 0/8 0/8 - - -
Mo, 01.06. 8:00 - 0/8 0/8 - - -
Mo, 01.06. 2:00 1800 m 8/8 8/8 - - -
Ortszeit Bedeckungsgrad in Achtel und Wolkenuntergrenze
Di, 02.06. 20:10 keine Wolken
Di, 02.06. 20:00 keine Wolken
Di, 02.06. 19:50 keine Wolken
Di, 02.06. 19:40 keine Wolken
Di, 02.06. 19:30 2(2400m)
Di, 02.06. 19:20 2(2400m)
Di, 02.06. 19:00 4(2400m)
Di, 02.06. 18:30 7(2400m)
Di, 02.06. 18:00 2(2400m)
Di, 02.06. 17:30 1(2400m)
Di, 02.06. 17:00 3(2100m)
Ortszeit Luftdruck NN (hPa) Tendenz (hPa in 3 Std.)
Di, 02.06. 20:00 1011 - 1,8
Di, 02.06. 14:00 1016 - 1,3
Di, 02.06. 8:00 1019 + 0,5
Di, 02.06. 2:00 1019 - 0,4
Mo, 01.06. 20:00 1017 - 0,5
Mo, 01.06. 14:00 1019 - 0,9
Mo, 01.06. 8:00 1022 + 0,5
Mo, 01.06. 2:00 1022 - 0,5
Ortszeit Luftdruck NN (hPa) Tendenz (hPa in 3 Std.)
Di, 02.06. 20:10 1011 keine Meldung
Di, 02.06. 20:00 1011 - 1,8
Di, 02.06. 19:50 1011 keine Meldung
Di, 02.06. 19:40 1011 keine Meldung
Di, 02.06. 19:30 1012 - 1,9
Di, 02.06. 19:20 1012 keine Meldung
Di, 02.06. 19:00 1012 - 2,0
Di, 02.06. 18:30 1012 - 2,1
Di, 02.06. 18:00 1013 - 2,1
Di, 02.06. 17:30 1013 - 2,1
Di, 02.06. 17:00 1013 - 2,1
Ortszeit Schneehöhe (cm)
Di, 02.06. 20:00 -
Di, 02.06. 14:00 -
Di, 02.06. 8:00 -
Di, 02.06. 2:00 -
Mo, 01.06. 20:00 -
Mo, 01.06. 14:00 -
Mo, 01.06. 8:00 -
Mo, 01.06. 2:00 -
Ortszeit Schneehöhe (cm)
Di, 02.06. 20:10 -
Di, 02.06. 20:00 -
Di, 02.06. 19:50 -
Di, 02.06. 19:40 -
Di, 02.06. 19:30 -
Di, 02.06. 19:20 -
Di, 02.06. 19:00 -
Di, 02.06. 18:30 -
Di, 02.06. 18:00 -
Di, 02.06. 17:30 -
Di, 02.06. 17:00 -
Link zu dieser Seite / Seite empfehlen

Das Wetter in ...